sensor_id;sensor_type;location;lat;lon;timestamp;pressure;altitude;pressure_sealevel;temperature;humidity
22872;BME280;11603;44.910;8.630;2023-04-06T00:00:00;100844.25;;;7.99;83.73
22872;BME280;11603;44.910;8.630;2023-04-06T00:02:26;100848.72;;;7.99;84.66
22872;BME280;11603;44.910;8.630;2023-04-06T00:04:51;100845.88;;;8.02;85.85
22872;BME280;11603;44.910;8.630;2023-04-06T00:07:17;100848.78;;;7.97;87.25
22872;BME280;11603;44.910;8.630;2023-04-06T00:09:42;100851.06;;;7.86;91.40
22872;BME280;11603;44.910;8.630;2023-04-06T00:12:13;100854.88;;;7.81;93.05
22872;BME280;11603;44.910;8.630;2023-04-06T00:14:39;100852.66;;;7.72;94.55
22872;BME280;11603;44.910;8.630;2023-04-06T00:17:05;100852.94;;;7.65;94.60
22872;BME280;11603;44.910;8.630;2023-04-06T00:19:34;100842.28;;;7.65;94.52
22872;BME280;11603;44.910;8.630;2023-04-06T00:22:00;100847.38;;;7.70;95.21
22872;BME280;11603;44.910;8.630;2023-04-06T00:24:27;100845.03;;;7.64;95.62
22872;BME280;11603;44.910;8.630;2023-04-06T00:26:53;100839.34;;;7.72;95.60
22872;BME280;11603;44.910;8.630;2023-04-06T00:29:19;100845.31;;;7.77;95.22
22872;BME280;11603;44.910;8.630;2023-04-06T00:31:45;100840.06;;;7.75;94.54
22872;BME280;11603;44.910;8.630;2023-04-06T00:34:10;100847.84;;;7.80;95.02
22872;BME280;11603;44.910;8.630;2023-04-06T00:36:36;100849.56;;;7.81;95.56
22872;BME280;11603;44.910;8.630;2023-04-06T00:39:01;100853.25;;;7.78;96.41
22872;BME280;11603;44.910;8.630;2023-04-06T00:41:27;100857.25;;;7.68;97.41
22872;BME280;11603;44.910;8.630;2023-04-06T00:43:53;100853.78;;;7.66;98.79
22872;BME280;11603;44.910;8.630;2023-04-06T00:46:20;100860.91;;;7.65;99.61
22872;BME280;11603;44.910;8.630;2023-04-06T00:48:45;100855.75;;;7.62;99.52
22872;BME280;11603;44.910;8.630;2023-04-06T00:51:16;100857.16;;;7.51;100.00
22872;BME280;11603;44.910;8.630;2023-04-06T00:53:42;100846.84;;;7.43;100.00
22872;BME280;11603;44.910;8.630;2023-04-06T00:56:09;100857.69;;;7.39;100.00
22872;BME280;11603;44.910;8.630;2023-04-06T00:58:47;100852.91;;;7.47;99.70
22872;BME280;11603;44.910;8.630;2023-04-06T01:01:13;100855.31;;;7.53;98.73
22872;BME280;11603;44.910;8.630;2023-04-06T01:03:41;100863.19;;;7.54;99.08
22872;BME280;11603;44.910;8.630;2023-04-06T01:06:09;100859.22;;;7.44;100.00
22872;BME280;11603;44.910;8.630;2023-04-06T01:08:39;100855.91;;;7.39;100.00
22872;BME280;11603;44.910;8.630;2023-04-06T01:11:24;100857.13;;;7.32;100.00
22872;BME280;11603;44.910;8.630;2023-04-06T01:13:52;100867.13;;;7.27;100.00
22872;BME280;11603;44.910;8.630;2023-04-06T01:16:26;100862.38;;;7.13;100.00
22872;BME280;11603;44.910;8.630;2023-04-06T01:19:14;100855.13;;;6.97;100.00
22872;BME280;11603;44.910;8.630;2023-04-06T01:21:45;100866.56;;;6.78;100.00
22872;BME280;11603;44.910;8.630;2023-04-06T01:24:36;100868.19;;;6.61;100.00
22872;BME280;11603;44.910;8.630;2023-04-06T01:27:06;100869.19;;;6.36;100.00
22872;BME280;11603;44.910;8.630;2023-04-06T01:29:50;100862.09;;;6.37;100.00
22872;BME280;11603;44.910;8.630;2023-04-06T01:32:30;100863.03;;;6.36;100.00
22872;BME280;11603;44.910;8.630;2023-04-06T01:34:56;100855.97;;;6.35;100.00
22872;BME280;11603;44.910;8.630;2023-04-06T01:37:22;100864.66;;;6.38;100.00
22872;BME280;11603;44.910;8.630;2023-04-06T01:39:49;100861.19;;;6.38;100.00
22872;BME280;11603;44.910;8.630;2023-04-06T01:42:24;100861.22;;;6.36;100.00
22872;BME280;11603;44.910;8.630;2023-04-06T01:44:51;100857.66;;;6.37;100.00
22872;BME280;11603;44.910;8.630;2023-04-06T01:47:20;100859.44;;;6.37;100.00
22872;BME280;11603;44.910;8.630;2023-04-06T01:49:46;100867.41;;;6.37;100.00
22872;BME280;11603;44.910;8.630;2023-04-06T01:52:14;100863.03;;;6.36;100.00
22872;BME280;11603;44.910;8.630;2023-04-06T01:54:48;100867.66;;;6.31;100.00
22872;BME280;11603;44.910;8.630;2023-04-06T01:57:18;100875.63;;;6.31;100.00
22872;BME280;11603;44.910;8.630;2023-04-06T01:59:54;100871.38;;;6.27;100.00
22872;BME280;11603;44.910;8.630;2023-04-06T02:02:27;100872.22;;;6.27;100.00
22872;BME280;11603;44.910;8.630;2023-04-06T02:04:59;100876.09;;;6.19;100.00
22872;BME280;11603;44.910;8.630;2023-04-06T02:07:25;100881.16;;;6.03;100.00
22872;BME280;11603;44.910;8.630;2023-04-06T02:09:54;100880.53;;;5.97;100.00
22872;BME280;11603;44.910;8.630;2023-04-06T02:12:27;100884.66;;;5.80;100.00
22872;BME280;11603;44.910;8.630;2023-04-06T02:14:53;100882.34;;;5.71;100.00
22872;BME280;11603;44.910;8.630;2023-04-06T02:17:19;100884.19;;;5.69;100.00
22872;BME280;11603;44.910;8.630;2023-04-06T02:19:45;100874.72;;;5.62;100.00
22872;BME280;11603;44.910;8.630;2023-04-06T02:22:11;100873.38;;;5.50;100.00
22872;BME280;11603;44.910;8.630;2023-04-06T02:24:37;100878.06;;;5.44;100.00
22872;BME280;11603;44.910;8.630;2023-04-06T02:27:04;100876.50;;;5.38;100.00
22872;BME280;11603;44.910;8.630;2023-04-06T02:29:31;100879.34;;;5.34;100.00
22872;BME280;11603;44.910;8.630;2023-04-06T02:31:56;100885.59;;;5.31;100.00
22872;BME280;11603;44.910;8.630;2023-04-06T02:34:22;100884.06;;;5.24;100.00
22872;BME280;11603;44.910;8.630;2023-04-06T02:36:51;100888.50;;;5.24;100.00
22872;BME280;11603;44.910;8.630;2023-04-06T02:39:17;100892.97;;;5.23;100.00
22872;BME280;11603;44.910;8.630;2023-04-06T02:41:43;100892.97;;;5.23;100.00
22872;BME280;11603;44.910;8.630;2023-04-06T02:44:11;100900.94;;;5.23;100.00
22872;BME280;11603;44.910;8.630;2023-04-06T02:46:46;100905.13;;;5.29;100.00
22872;BME280;11603;44.910;8.630;2023-04-06T02:49:12;100895.22;;;5.09;100.00
22872;BME280;11603;44.910;8.630;2023-04-06T02:51:41;100904.09;;;5.08;100.00
22872;BME280;11603;44.910;8.630;2023-04-06T02:54:26;100905.75;;;5.12;100.00
22872;BME280;11603;44.910;8.630;2023-04-06T02:56:54;100893.22;;;5.16;100.00
22872;BME280;11603;44.910;8.630;2023-04-06T02:59:26;100899.44;;;5.15;100.00
22872;BME280;11603;44.910;8.630;2023-04-06T03:02:01;100900.22;;;5.18;100.00
22872;BME280;11603;44.910;8.630;2023-04-06T03:04:27;100896.53;;;5.22;100.00
22872;BME280;11603;44.910;8.630;2023-04-06T03:06:54;100907.94;;;5.24;100.00
22872;BME280;11603;44.910;8.630;2023-04-06T03:09:31;100899.69;;;5.33;100.00
22872;BME280;11603;44.910;8.630;2023-04-06T03:11:57;100895.25;;;5.34;100.00
22872;BME280;11603;44.910;8.630;2023-04-06T03:14:28;100899.34;;;5.42;100.00
22872;BME280;11603;44.910;8.630;2023-04-06T03:16:55;100888.72;;;5.42;100.00
22872;BME280;11603;44.910;8.630;2023-04-06T03:19:22;100891.16;;;5.48;100.00
22872;BME280;11603;44.910;8.630;2023-04-06T03:21:48;100893.53;;;5.56;100.00
22872;BME280;11603;44.910;8.630;2023-04-06T03:24:17;100891.56;;;5.61;100.00
22872;BME280;11603;44.910;8.630;2023-04-06T03:26:42;100887.25;;;5.59;100.00
22872;BME280;11603;44.910;8.630;2023-04-06T03:29:10;100885.75;;;5.51;100.00
22872;BME280;11603;44.910;8.630;2023-04-06T03:31:36;100879.69;;;5.48;100.00
22872;BME280;11603;44.910;8.630;2023-04-06T03:34:07;100884.34;;;5.41;100.00
22872;BME280;11603;44.910;8.630;2023-04-06T03:36:35;100881.81;;;5.38;100.00
22872;BME280;11603;44.910;8.630;2023-04-06T03:39:02;100884.84;;;5.28;100.00
22872;BME280;11603;44.910;8.630;2023-04-06T03:41:32;100896.41;;;5.25;100.00
22872;BME280;11603;44.910;8.630;2023-04-06T03:44:18;100902.72;;;5.23;100.00
22872;BME280;11603;44.910;8.630;2023-04-06T03:46:43;100906.16;;;5.25;100.00
22872;BME280;11603;44.910;8.630;2023-04-06T03:49:12;100912.34;;;5.25;100.00
22872;BME280;11603;44.910;8.630;2023-04-06T03:51:40;100912.44;;;5.22;100.00
22872;BME280;11603;44.910;8.630;2023-04-06T03:54:07;100902.13;;;5.13;100.00
22872;BME280;11603;44.910;8.630;2023-04-06T03:56:33;100906.03;;;5.03;100.00
22872;BME280;11603;44.910;8.630;2023-04-06T03:58:59;100909.72;;;4.99;100.00
22872;BME280;11603;44.910;8.630;2023-04-06T04:01:25;100912.47;;;4.96;100.00
22872;BME280;11603;44.910;8.630;2023-04-06T04:03:54;100915.00;;;4.99;100.00
22872;BME280;11603;44.910;8.630;2023-04-06T04:06:20;100912.53;;;4.94;100.00
22872;BME280;11603;44.910;8.630;2023-04-06T04:08:45;100917.66;;;4.99;100.00
22872;BME280;11603;44.910;8.630;2023-04-06T04:11:11;100916.03;;;4.95;100.00
22872;BME280;11603;44.910;8.630;2023-04-06T04:13:38;100913.56;;;4.90;100.00
22872;BME280;11603;44.910;8.630;2023-04-06T04:16:06;100914.50;;;4.88;100.00
22872;BME280;11603;44.910;8.630;2023-04-06T04:18:31;100920.78;;;4.85;100.00
22872;BME280;11603;44.910;8.630;2023-04-06T04:20:57;100920.78;;;4.85;100.00
22872;BME280;11603;44.910;8.630;2023-04-06T04:23:23;100919.00;;;4.86;100.00
22872;BME280;11603;44.910;8.630;2023-04-06T04:25:51;100921.00;;;4.79;100.00
22872;BME280;11603;44.910;8.630;2023-04-06T04:28:17;100926.25;;;4.81;100.00
22872;BME280;11603;44.910;8.630;2023-04-06T04:30:43;100926.13;;;4.84;100.00
22872;BME280;11603;44.910;8.630;2023-04-06T04:33:13;100924.66;;;4.75;100.00
22872;BME280;11603;44.910;8.630;2023-04-06T04:35:40;100935.31;;;4.74;100.00
22872;BME280;11603;44.910;8.630;2023-04-06T04:38:06;100932.53;;;4.77;100.00
22872;BME280;11603;44.910;8.630;2023-04-06T04:40:35;100933.56;;;4.73;100.00
22872;BME280;11603;44.910;8.630;2023-04-06T04:43:07;100929.25;;;4.70;100.00
22872;BME280;11603;44.910;8.630;2023-04-06T04:45:34;100935.41;;;4.71;100.00
22872;BME280;11603;44.910;8.630;2023-04-06T04:48:10;100937.25;;;4.68;100.00
22872;BME280;11603;44.910;8.630;2023-04-06T04:50:47;100941.72;;;4.66;100.00
22872;BME280;11603;44.910;8.630;2023-04-06T04:53:14;100941.66;;;4.68;100.00
22872;BME280;11603;44.910;8.630;2023-04-06T04:55:42;100946.09;;;4.67;100.00
22872;BME280;11603;44.910;8.630;2023-04-06T04:58:09;100950.53;;;4.67;100.00
22872;BME280;11603;44.910;8.630;2023-04-06T05:00:59;100947.94;;;4.65;100.00
22872;BME280;11603;44.910;8.630;2023-04-06T05:03:28;100955.28;;;4.56;100.00
22872;BME280;11603;44.910;8.630;2023-04-06T05:05:58;100955.44;;;4.51;100.00
22872;BME280;11603;44.910;8.630;2023-04-06T05:08:27;100960.72;;;4.53;100.00
22872;BME280;11603;44.910;8.630;2023-04-06T05:10:53;100964.22;;;4.53;100.00
22872;BME280;11603;44.910;8.630;2023-04-06T05:13:19;100965.13;;;4.52;100.00
22872;BME280;11603;44.910;8.630;2023-04-06T05:15:47;100964.59;;;4.41;100.00
22872;BME280;11603;44.910;8.630;2023-04-06T05:18:26;100966.16;;;4.48;100.00
22872;BME280;11603;44.910;8.630;2023-04-06T05:20:53;100960.09;;;4.45;100.00
22872;BME280;11603;44.910;8.630;2023-04-06T05:23:24;100967.75;;;4.54;100.00
22872;BME280;11603;44.910;8.630;2023-04-06T05:25:51;100962.06;;;4.92;100.00
22872;BME280;11603;44.910;8.630;2023-04-06T05:28:20;100962.56;;;5.30;100.00
22872;BME280;11603;44.910;8.630;2023-04-06T05:30:46;100952.88;;;5.53;100.00
22872;BME280;11603;44.910;8.630;2023-04-06T05:33:13;100953.19;;;5.69;100.00
22872;BME280;11603;44.910;8.630;2023-04-06T05:35:58;100962.66;;;5.76;100.00
22872;BME280;11603;44.910;8.630;2023-04-06T05:38:26;100967.22;;;5.73;100.00
22872;BME280;11603;44.910;8.630;2023-04-06T05:40:53;100966.78;;;5.60;100.00
22872;BME280;11603;44.910;8.630;2023-04-06T05:43:25;100978.97;;;5.41;100.00
22872;BME280;11603;44.910;8.630;2023-04-06T05:45:59;100976.47;;;5.36;100.00
22872;BME280;11603;44.910;8.630;2023-04-06T05:48:25;100976.66;;;5.32;100.00
22872;BME280;11603;44.910;8.630;2023-04-06T05:50:51;100981.19;;;5.28;100.00
22872;BME280;11603;44.910;8.630;2023-04-06T05:53:22;100984.41;;;5.11;100.00
22872;BME280;11603;44.910;8.630;2023-04-06T05:55:54;100985.56;;;5.03;100.00
22872;BME280;11603;44.910;8.630;2023-04-06T05:58:24;100988.88;;;5.09;100.00
22872;BME280;11603;44.910;8.630;2023-04-06T06:00:59;100990.66;;;5.09;100.00
22872;BME280;11603;44.910;8.630;2023-04-06T06:03:32;100989.03;;;5.05;100.00
22872;BME280;11603;44.910;8.630;2023-04-06T06:06:01;100994.81;;;5.18;100.00
22872;BME280;11603;44.910;8.630;2023-04-06T06:08:34;101000.75;;;5.24;100.00
22872;BME280;11603;44.910;8.630;2023-04-06T06:11:02;101001.63;;;5.25;100.00
22872;BME280;11603;44.910;8.630;2023-04-06T06:13:29;100998.88;;;5.28;100.00
22872;BME280;11603;44.910;8.630;2023-04-06T06:15:55;100992.59;;;5.30;100.00
22872;BME280;11603;44.910;8.630;2023-04-06T06:18:31;100994.69;;;5.47;100.00
22872;BME280;11603;44.910;8.630;2023-04-06T06:21:33;100988.88;;;5.61;100.00
22872;BME280;11603;44.910;8.630;2023-04-06T06:28:39;100987.50;;;5.75;100.00
22872;BME280;11603;44.910;8.630;2023-04-06T06:31:44;100997.44;;;5.69;100.00
22872;BME280;11603;44.910;8.630;2023-04-06T06:34:46;100990.19;;;5.74;100.00
22872;BME280;11603;44.910;8.630;2023-04-06T06:37:17;100999.69;;;5.81;100.00
22872;BME280;11603;44.910;8.630;2023-04-06T06:51:40;101002.13;;;5.87;100.00
22872;BME280;11603;44.910;8.630;2023-04-06T07:16:18;101000.09;;;6.63;100.00
22872;BME280;11603;44.910;8.630;2023-04-06T07:23:49;101003.06;;;6.77;100.00
22872;BME280;11603;44.910;8.630;2023-04-06T07:27:14;101008.69;;;6.92;100.00
22872;BME280;11603;44.910;8.630;2023-04-06T07:29:42;101016.13;;;7.05;100.00
22872;BME280;11603;44.910;8.630;2023-04-06T07:32:17;101016.81;;;7.10;100.00
22872;BME280;11603;44.910;8.630;2023-04-06T07:34:42;101014.78;;;7.17;100.00
22872;BME280;11603;44.910;8.630;2023-04-06T07:50:45;101013.50;;;7.26;92.11
22872;BME280;11603;44.910;8.630;2023-04-06T07:54:00;101019.13;;;7.18;87.56
22872;BME280;11603;44.910;8.630;2023-04-06T08:03:36;101017.00;;;7.48;75.26
22872;BME280;11603;44.910;8.630;2023-04-06T08:06:10;101016.47;;;7.60;76.50
22872;BME280;11603;44.910;8.630;2023-04-06T08:09:10;101018.44;;;7.75;73.09
22872;BME280;11603;44.910;8.630;2023-04-06T08:11:48;101014.19;;;7.91;71.69
22872;BME280;11603;44.910;8.630;2023-04-06T08:14:32;101010.72;;;8.09;69.80
22872;BME280;11603;44.910;8.630;2023-04-06T08:21:33;100999.47;;;8.22;68.52
22872;BME280;11603;44.910;8.630;2023-04-06T08:24:17;101008.03;;;8.30;69.82
22872;BME280;11603;44.910;8.630;2023-04-06T08:27:48;100997.81;;;8.58;69.60
22872;BME280;11603;44.910;8.630;2023-04-06T08:30:18;100993.03;;;8.83;70.29
22872;BME280;11603;44.910;8.630;2023-04-06T08:32:46;100995.97;;;8.96;70.90
22872;BME280;11603;44.910;8.630;2023-04-06T08:35:12;100993.44;;;8.93;72.27
22872;BME280;11603;44.910;8.630;2023-04-06T08:37:37;100992.50;;;8.94;72.27
22872;BME280;11603;44.910;8.630;2023-04-06T08:41:11;100990.63;;;8.96;70.38
22872;BME280;11603;44.910;8.630;2023-04-06T08:43:46;100986.59;;;9.23;69.44
22872;BME280;11603;44.910;8.630;2023-04-06T08:52:48;100985.19;;;9.68;64.19
22872;BME280;11603;44.910;8.630;2023-04-06T09:09:10;100983.06;;;10.25;60.32
22872;BME280;11603;44.910;8.630;2023-04-06T09:23:37;100964.44;;;10.86;59.66
22872;BME280;11603;44.910;8.630;2023-04-06T09:26:21;100962.81;;;11.29;59.16
22872;BME280;11603;44.910;8.630;2023-04-06T09:28:56;100960.00;;;11.46;58.48
22872;BME280;11603;44.910;8.630;2023-04-06T09:31:30;100958.09;;;11.18;59.05
22872;BME280;11603;44.910;8.630;2023-04-06T09:33:59;100957.47;;;11.29;59.67
22872;BME280;11603;44.910;8.630;2023-04-06T09:36:36;100960.59;;;11.65;58.36
22872;BME280;11603;44.910;8.630;2023-04-06T09:39:06;100953.00;;;12.02;57.93
22872;BME280;11603;44.910;8.630;2023-04-06T09:41:34;100946.50;;;12.34;56.81
22872;BME280;11603;44.910;8.630;2023-04-06T09:44:08;100941.66;;;12.53;55.35
22872;BME280;11603;44.910;8.630;2023-04-06T09:46:39;100938.88;;;12.41;55.10
22872;BME280;11603;44.910;8.630;2023-04-06T09:49:10;100937.75;;;12.30;55.31
22872;BME280;11603;44.910;8.630;2023-04-06T09:51:45;100934.53;;;12.11;55.32
22872;BME280;11603;44.910;8.630;2023-04-06T09:54:17;100922.13;;;12.37;54.96
22872;BME280;11603;44.910;8.630;2023-04-06T10:07:01;100916.28;;;13.12;50.04
22872;BME280;11603;44.910;8.630;2023-04-06T10:09:30;100910.50;;;13.31;50.07
22872;BME280;11603;44.910;8.630;2023-04-06T10:12:05;100906.34;;;13.65;49.18
22872;BME280;11603;44.910;8.630;2023-04-06T10:14:56;100897.00;;;13.71;48.98
22872;BME280;11603;44.910;8.630;2023-04-06T10:21:03;100904.25;;;14.19;46.02
22872;BME280;11603;44.910;8.630;2023-04-06T10:23:55;100900.69;;;14.31;45.21
22872;BME280;11603;44.910;8.630;2023-04-06T10:30:21;100890.81;;;14.56;43.44
22872;BME280;11603;44.910;8.630;2023-04-06T10:33:20;100901.56;;;14.19;44.14
22872;BME280;11603;44.910;8.630;2023-04-06T10:35:46;100888.75;;;14.23;43.90
22872;BME280;11603;44.910;8.630;2023-04-06T10:38:13;100892.06;;;14.75;43.66
22872;BME280;11603;44.910;8.630;2023-04-06T10:40:41;100892.75;;;14.90;43.69
22872;BME280;11603;44.910;8.630;2023-04-06T10:43:19;100890.44;;;14.97;44.17
22872;BME280;11603;44.910;8.630;2023-04-06T10:45:54;100882.56;;;15.28;42.49
22872;BME280;11603;44.910;8.630;2023-04-06T10:48:21;100884.81;;;15.00;42.22
22872;BME280;11603;44.910;8.630;2023-04-06T10:50:48;100879.59;;;15.09;41.54
22872;BME280;11603;44.910;8.630;2023-04-06T10:53:24;100874.84;;;15.24;41.08
22872;BME280;11603;44.910;8.630;2023-04-06T10:55:51;100873.13;;;15.58;40.77
22872;BME280;11603;44.910;8.630;2023-04-06T10:58:17;100868.84;;;15.66;40.26
22872;BME280;11603;44.910;8.630;2023-04-06T11:00:48;100865.06;;;15.91;40.08
22872;BME280;11603;44.910;8.630;2023-04-06T11:03:14;100859.28;;;16.18;39.43
22872;BME280;11603;44.910;8.630;2023-04-06T11:05:47;100867.34;;;16.29;39.05
22872;BME280;11603;44.910;8.630;2023-04-06T11:08:32;100851.88;;;16.42;38.99
22872;BME280;11603;44.910;8.630;2023-04-06T11:11:16;100843.13;;;16.50;38.85
22872;BME280;11603;44.910;8.630;2023-04-06T11:16:19;100835.91;;;16.62;37.86
22872;BME280;11603;44.910;8.630;2023-04-06T11:19:02;100831.78;;;16.35;37.57
22872;BME280;11603;44.910;8.630;2023-04-06T11:24:13;100827.78;;;16.50;37.28
22872;BME280;11603;44.910;8.630;2023-04-06T11:26:50;100822.50;;;16.92;37.02
22872;BME280;11603;44.910;8.630;2023-04-06T11:29:21;100819.81;;;17.13;36.80
22872;BME280;11603;44.910;8.630;2023-04-06T11:31:52;100814.16;;;17.16;36.78
22872;BME280;11603;44.910;8.630;2023-04-06T11:34:19;100818.44;;;17.60;36.18
22872;BME280;11603;44.910;8.630;2023-04-06T11:36:47;100800.16;;;17.52;35.74
22872;BME280;11603;44.910;8.630;2023-04-06T11:39:18;100809.06;;;17.22;35.98
22872;BME280;11603;44.910;8.630;2023-04-06T11:41:48;100801.50;;;17.37;35.77
22872;BME280;11603;44.910;8.630;2023-04-06T11:44:15;100801.88;;;17.53;35.66
22872;BME280;11603;44.910;8.630;2023-04-06T11:46:41;100794.63;;;17.84;35.10
22872;BME280;11603;44.910;8.630;2023-04-06T11:49:16;100794.31;;;17.77;35.05
22872;BME280;11603;44.910;8.630;2023-04-06T11:51:42;100786.91;;;17.59;34.68
22872;BME280;11603;44.910;8.630;2023-04-06T11:54:10;100781.91;;;17.54;34.99
22872;BME280;11603;44.910;8.630;2023-04-06T11:56:36;100779.91;;;17.47;35.30
22872;BME280;11603;44.910;8.630;2023-04-06T11:59:02;100776.63;;;17.22;35.54
22872;BME280;11603;44.910;8.630;2023-04-06T12:01:28;100775.63;;;17.23;35.72
22872;BME280;11603;44.910;8.630;2023-04-06T12:03:53;100775.84;;;17.31;35.88
22872;BME280;11603;44.910;8.630;2023-04-06T12:06:19;100781.72;;;17.36;36.06
22872;BME280;11603;44.910;8.630;2023-04-06T12:08:45;100772.59;;;17.38;35.91
22872;BME280;11603;44.910;8.630;2023-04-06T12:11:11;100776.00;;;17.40;35.98
22872;BME280;11603;44.910;8.630;2023-04-06T12:13:37;100763.44;;;17.29;35.66
22872;BME280;11603;44.910;8.630;2023-04-06T12:16:02;100757.69;;;17.22;36.06
22872;BME280;11603;44.910;8.630;2023-04-06T12:18:29;100763.72;;;17.26;35.78
22872;BME280;11603;44.910;8.630;2023-04-06T12:20:56;100758.56;;;17.23;36.23
22872;BME280;11603;44.910;8.630;2023-04-06T12:23:22;100747.81;;;17.12;36.51
22872;BME280;11603;44.910;8.630;2023-04-06T12:25:48;100748.84;;;17.11;36.51
22872;BME280;11603;44.910;8.630;2023-04-06T12:28:13;100746.25;;;17.09;36.01
22872;BME280;11603;44.910;8.630;2023-04-06T12:30:39;100737.63;;;16.94;36.07
22872;BME280;11603;44.910;8.630;2023-04-06T12:33:07;100739.13;;;16.87;36.13
22872;BME280;11603;44.910;8.630;2023-04-06T12:35:36;100734.25;;;16.81;36.32
22872;BME280;11603;44.910;8.630;2023-04-06T12:38:03;100732.88;;;16.66;36.88
22872;BME280;11603;44.910;8.630;2023-04-06T12:40:29;100729.19;;;16.67;36.63
22872;BME280;11603;44.910;8.630;2023-04-06T12:42:54;100716.41;;;16.90;36.50
22872;BME280;11603;44.910;8.630;2023-04-06T12:45:20;100722.34;;;17.05;36.54
22872;BME280;11603;44.910;8.630;2023-04-06T12:47:46;100714.81;;;17.08;37.13
22872;BME280;11603;44.910;8.630;2023-04-06T12:50:12;100720.94;;;17.10;37.37
22872;BME280;11603;44.910;8.630;2023-04-06T12:52:38;100711.06;;;17.30;37.11
22872;BME280;11603;44.910;8.630;2023-04-06T12:55:12;100714.00;;;17.48;37.11
22872;BME280;11603;44.910;8.630;2023-04-06T12:58:16;100709.69;;;17.35;36.85
22872;BME280;11603;44.910;8.630;2023-04-06T13:00:51;100715.66;;;17.39;36.81
22872;BME280;11603;44.910;8.630;2023-04-06T13:07:59;100705.84;;;17.68;35.52
22872;BME280;11603;44.910;8.630;2023-04-06T13:10:28;100699.63;;;17.87;35.35
22872;BME280;11603;44.910;8.630;2023-04-06T13:12:54;100686.69;;;18.10;35.17
22872;BME280;11603;44.910;8.630;2023-04-06T13:15:22;100684.56;;;18.04;35.53
22872;BME280;11603;44.910;8.630;2023-04-06T13:17:54;100682.97;;;18.11;35.69
22872;BME280;11603;44.910;8.630;2023-04-06T13:20:19;100685.97;;;18.17;35.55
22872;BME280;11603;44.910;8.630;2023-04-06T13:22:45;100686.53;;;18.11;35.74
22872;BME280;11603;44.910;8.630;2023-04-06T13:25:11;100680.25;;;17.82;36.22
22872;BME280;11603;44.910;8.630;2023-04-06T13:27:37;100675.38;;;17.76;36.05
22872;BME280;11603;44.910;8.630;2023-04-06T13:30:03;100671.16;;;18.02;35.87
22872;BME280;11603;44.910;8.630;2023-04-06T13:32:30;100665.88;;;18.01;36.16
22872;BME280;11603;44.910;8.630;2023-04-06T13:35:01;100664.31;;;17.79;36.51
22872;BME280;11603;44.910;8.630;2023-04-06T13:37:32;100657.72;;;17.72;36.42
22872;BME280;11603;44.910;8.630;2023-04-06T13:44:07;100651.03;;;17.76;35.97
22872;BME280;11603;44.910;8.630;2023-04-06T13:46:32;100650.75;;;17.39;37.24
22872;BME280;11603;44.910;8.630;2023-04-06T13:48:58;100652.59;;;17.38;37.27
22872;BME280;11603;44.910;8.630;2023-04-06T13:52:06;100640.38;;;17.44;37.15
22872;BME280;11603;44.910;8.630;2023-04-06T13:55:34;100643.28;;;17.22;38.06
22872;BME280;11603;44.910;8.630;2023-04-06T13:57:59;100632.63;;;17.20;37.59
22872;BME280;11603;44.910;8.630;2023-04-06T14:00:25;100624.66;;;17.19;37.61
22872;BME280;11603;44.910;8.630;2023-04-06T14:02:50;100634.94;;;17.25;36.97
22872;BME280;11603;44.910;8.630;2023-04-06T14:05:18;100629.53;;;16.94;37.41
22872;BME280;11603;44.910;8.630;2023-04-06T14:07:44;100624.63;;;17.09;37.13
22872;BME280;11603;44.910;8.630;2023-04-06T14:10:09;100621.38;;;17.15;37.24
22872;BME280;11603;44.910;8.630;2023-04-06T14:12:41;100622.84;;;17.29;37.06
22872;BME280;11603;44.910;8.630;2023-04-06T14:15:10;100624.03;;;17.46;36.85
22872;BME280;11603;44.910;8.630;2023-04-06T14:17:36;100618.50;;;17.57;36.91
22872;BME280;11603;44.910;8.630;2023-04-06T14:20:01;100614.44;;;17.62;37.37
22872;BME280;11603;44.910;8.630;2023-04-06T14:22:27;100611.00;;;17.70;36.83
22872;BME280;11603;44.910;8.630;2023-04-06T14:24:55;100619.19;;;17.49;36.94
22872;BME280;11603;44.910;8.630;2023-04-06T14:27:32;100615.84;;;17.66;36.76
22872;BME280;11603;44.910;8.630;2023-04-06T14:30:04;100613.44;;;17.63;36.59
22872;BME280;11603;44.910;8.630;2023-04-06T14:32:32;100600.47;;;17.76;36.64
22872;BME280;11603;44.910;8.630;2023-04-06T14:34:57;100609.47;;;17.96;36.63
22872;BME280;11603;44.910;8.630;2023-04-06T14:37:23;100608.19;;;18.10;36.49
22872;BME280;11603;44.910;8.630;2023-04-06T14:39:55;100598.34;;;18.09;36.36
22872;BME280;11603;44.910;8.630;2023-04-06T14:42:23;100589.38;;;18.18;36.40
22872;BME280;11603;44.910;8.630;2023-04-06T14:44:48;100594.66;;;18.19;36.32
22872;BME280;11603;44.910;8.630;2023-04-06T14:55:17;100576.97;;;18.06;36.47
22872;BME280;11603;44.910;8.630;2023-04-06T15:05:34;100579.03;;;17.45;36.28
22872;BME280;11603;44.910;8.630;2023-04-06T15:12:01;100571.56;;;17.96;36.99
22872;BME280;11603;44.910;8.630;2023-04-06T15:17:33;100584.81;;;17.61;37.55
22872;BME280;11603;44.910;8.630;2023-04-06T15:20:22;100570.50;;;17.59;37.47
22872;BME280;11603;44.910;8.630;2023-04-06T15:22:47;100573.84;;;17.82;37.31
22872;BME280;11603;44.910;8.630;2023-04-06T15:25:13;100573.50;;;17.56;37.94
22872;BME280;11603;44.910;8.630;2023-04-06T15:27:47;100577.53;;;17.61;37.69
22872;BME280;11603;44.910;8.630;2023-04-06T15:30:14;100567.59;;;17.71;37.49
22872;BME280;11603;44.910;8.630;2023-04-06T15:40:17;100564.75;;;17.73;38.18
22872;BME280;11603;44.910;8.630;2023-04-06T15:43:18;100558.16;;;17.56;37.95
22872;BME280;11603;44.910;8.630;2023-04-06T15:53:16;100565.31;;;17.17;38.32
22872;BME280;11603;44.910;8.630;2023-04-06T15:55:41;100559.66;;;17.20;38.61
22872;BME280;11603;44.910;8.630;2023-04-06T16:02:00;100555.53;;;17.16;39.16
22872;BME280;11603;44.910;8.630;2023-04-06T16:04:27;100562.28;;;17.01;38.62